Zenken Maru — JG5556 — position and weather

sailwx.info

Track history (hours):
 
Tides and Currents Weather Stations Pressure Air Temp Water Temp Dewpoint Dewpoint Depression Visibility Wind Speed Wind Dir Waves Ship Positions

Zenken Maru

Last reported at 2016-Feb-14 05:32 UTC. Time now 2016-Feb-14 05:56 UTC.
Position N 35°21' E 139°41'.

Length 98 m; draft 7.2 m.

Type: Cargo ship. MMSI: 431100955.

Date/timePositionNaut miles runAvg speedWind from/ knotsBaromVisibWave heightAir tempDewpointWater temp
2016-Feb-14 05:32N 35°21' E 139°41'0 0.0
2016-Feb-14 04:33N 35°21' E 139°41'0 0.0
2016-Feb-14 03:33N 35°21' E 139°41'0 0.0
2016-Feb-14 02:32N 35°21' E 139°41'0 0.0
2016-Feb-14 01:33N 35°21' E 139°41'0 0.0
2016-Feb-14 00:34N 35°21' E 139°41'0 0.0
2016-Feb-13 23:33N 35°21' E 139°41'0 0.1
2016-Feb-13 22:33N 35°20' E 139°41'1010.1
2016-Feb-13 21:33N 35°11' E 139°47'1312.1
2016-Feb-13 20:27N 34°58' E 139°43'1212.4
2016-Feb-13 19:31N 34°48' E 139°49'1211.9
2016-Feb-13 18:30N 34°37' E 139°56'34 1.0
2016-Feb-12 08:30N 35°10' E 139°46'910.0
2016-Feb-12 07:34N 35°19' E 139°43'5 5.0
2016-Feb-12 06:33N 35°23' E 139°39'0 0.0
2016-Feb-12 05:33N 35°23' E 139°39'0 0.0
2016-Feb-12 04:30N 35°23' E 139°39'0 0.0
2016-Feb-12 03:33N 35°23' E 139°39'0 0.0
2016-Feb-12 02:33N 35°23' E 139°39'0 0.0
2016-Feb-12 01:33N 35°23' E 139°39'0 0.0
2016-Feb-12 00:33N 35°23' E 139°39'0 0.0
2016-Feb-11 23:33N 35°23' E 139°39'0 0.0
2016-Feb-11 22:33N 35°23' E 139°39'0 0.0
2016-Feb-11 21:33N 35°23' E 139°39'0 0.0
2016-Feb-11 20:33N 35°23' E 139°39'0 0.0
2016-Feb-11 19:33N 35°23' E 139°39'0 0.0
2016-Feb-11 18:33N 35°23' E 139°39'0 0.0
2016-Feb-11 17:33N 35°23' E 139°39'0 0.0
2016-Feb-11 16:33N 35°23' E 139°39'0 0.0
2016-Feb-11 15:33N 35°23' E 139°39'0 0.0
2016-Feb-11 14:33N 35°23' E 139°39'0 0.0
2016-Feb-11 13:33N 35°23' E 139°39'0 0.0
2016-Feb-11 12:33N 35°23' E 139°39'0 0.0
2016-Feb-11 11:33N 35°23' E 139°39'0 0.0
2016-Feb-11 10:33N 35°23' E 139°39'0 0.0
2016-Feb-11 09:33N 35°23' E 139°39'0 0.0
2016-Feb-11 08:33N 35°23' E 139°39'0 0.0
2016-Feb-11 07:33N 35°23' E 139°39'0 0.0
2016-Feb-11 06:33N 35°23' E 139°39'0 0.0
2016-Feb-11 05:33N 35°23' E 139°39'0 0.0
2016-Feb-11 04:33N 35°23' E 139°39'0 0.0
2016-Feb-11 03:33N 35°23' E 139°39'0 0.0
2016-Feb-11 02:33N 35°23' E 139°39'0 0.0
2016-Feb-11 01:33N 35°23' E 139°39'0 0.0
2016-Feb-11 00:33N 35°23' E 139°39'0 0.0
2016-Feb-10 23:30N 35°23' E 139°39'0 0.0
2016-Feb-10 22:33N 35°23' E 139°39'0 0.0
2016-Feb-10 21:33N 35°23' E 139°39'0 0.0
2016-Feb-10 20:33N 35°23' E 139°39'0 0.0
2016-Feb-10 19:33N 35°23' E 139°39'0 0.0
2016-Feb-10 18:33N 35°23' E 139°39'0 0.0
2016-Feb-10 17:33N 35°23' E 139°39'0 0.0
2016-Feb-10 16:30N 35°23' E 139°39'0 0.0
2016-Feb-10 15:33N 35°23' E 139°39'0 0.0
2016-Feb-10 14:33N 35°23' E 139°39'0 0.0
2016-Feb-10 13:33N 35°23' E 139°39'0 0.0
2016-Feb-10 12:33N 35°23' E 139°39'0 0.0
2016-Feb-10 11:30N 35°23' E 139°39'0 0.0
2016-Feb-10 10:33N 35°23' E 139°39'0 0.0
2016-Feb-10 09:33N 35°23' E 139°39'0 0.0
2016-Feb-10 08:33N 35°23' E 139°39'0 0.0
2016-Feb-10 07:33N 35°23' E 139°39'0 0.0
2016-Feb-10 06:33N 35°23' E 139°39'0 0.0
2016-Feb-10 05:33N 35°23' E 139°39'0 0.0
2016-Feb-10 04:33N 35°23' E 139°39'0 0.0
2016-Feb-10 03:33N 35°23' E 139°39'0 0.0
2016-Feb-10 02:33N 35°23' E 139°39'0 0.0
2016-Feb-10 01:33N 35°23' E 139°39'0 0.0
2016-Feb-10 00:33N 35°23' E 139°39'0 0.0
2016-Feb-09 23:33N 35°23' E 139°39'0 0.3
2016-Feb-09 22:34N 35°23' E 139°39'3 2.9
2016-Feb-09 21:33N 35°21' E 139°41'0 0.0
2016-Feb-09 20:31N 35°21' E 139°41'0 0.1
2016-Feb-09 19:31N 35°21' E 139°41'0 0.1
2016-Feb-09 18:31N 35°21' E 139°41'0 0.0
2016-Feb-09 17:31N 35°21' E 139°41'0 0.1
2016-Feb-09 16:31N 35°21' E 139°41'0 0.0
2016-Feb-09 15:31N 35°21' E 139°41'0 0.0
2016-Feb-09 14:31N 35°21' E 139°41'0 0.0
2016-Feb-09 13:31N 35°21' E 139°41'0 0.0
2016-Feb-09 12:31N 35°21' E 139°41'0 0.0
2016-Feb-09 11:31N 35°21' E 139°41'0 0.0
2016-Feb-09 10:31N 35°21' E 139°41'0 0.1
2016-Feb-09 09:34N 35°21' E 139°41'0 0.0
2016-Feb-09 08:34N 35°21' E 139°41'0 0.1
2016-Feb-09 07:34N 35°21' E 139°41'0 0.0
2016-Feb-09 06:33N 35°21' E 139°41'0 0.0
2016-Feb-09 05:33N 35°21' E 139°41'0 0.0
2016-Feb-09 04:33N 35°21' E 139°41'0 0.0
2016-Feb-09 03:32N 35°21' E 139°41'0 0.0
2016-Feb-09 02:32N 35°21' E 139°41'0 0.0
2016-Feb-09 01:32N 35°21' E 139°41'0 0.1
2016-Feb-09 00:32N 35°21' E 139°41'0 0.1
2016-Feb-08 23:32N 35°21' E 139°41'0 0.0
2016-Feb-08 22:32N 35°21' E 139°41'0 0.0
2016-Feb-08 21:32N 35°21' E 139°41'0 0.0
2016-Feb-08 20:32N 35°21' E 139°41'0 0.0
2016-Feb-08 19:32N 35°21' E 139°41'0 0.0
2016-Feb-08 18:32N 35°21' E 139°41'0 0.1
2016-Feb-08 17:32N 35°21' E 139°41'0 0.0
2016-Feb-08 16:32N 35°21' E 139°41'0 0.1
2016-Feb-08 15:32N 35°21' E 139°41'0 0.1
2016-Feb-08 14:32N 35°21' E 139°41'0 0.0
2016-Feb-08 13:32N 35°21' E 139°41'0 0.0
2016-Feb-08 12:32N 35°21' E 139°41'0 0.0
2016-Feb-08 11:32N 35°21' E 139°41'0 0.0
2016-Feb-08 10:32N 35°21' E 139°41'0 0.0
2016-Feb-08 09:32N 35°21' E 139°41'0 0.0
2016-Feb-08 08:32N 35°21' E 139°41'0 0.0
2016-Feb-08 07:32N 35°21' E 139°41'0 0.0
2016-Feb-08 06:32N 35°21' E 139°41'0 0.1
2016-Feb-08 05:32N 35°21' E 139°41'0 0.0
2016-Feb-08 04:32N 35°21' E 139°41'0 0.0
2016-Feb-08 03:32N 35°21' E 139°41'0 0.0
2016-Feb-08 02:32N 35°21' E 139°41'0 0.0
2016-Feb-08 01:32N 35°21' E 139°41'0 0.0
2016-Feb-08 00:32N 35°21' E 139°41'0 0.0
2016-Feb-07 23:32N 35°21' E 139°41'0 0.0
2016-Feb-07 22:32N 35°21' E 139°41'0 0.0
2016-Feb-07 21:32N 35°21' E 139°41'0 0.0
2016-Feb-07 20:32N 35°21' E 139°41'0 0.1
2016-Feb-07 19:34N 35°21' E 139°41'1010.3
2016-Feb-07 18:33N 35°12' E 139°47'1211.6
2016-Feb-07 17:33N 35°00' E 139°43'1111.3
2016-Feb-07 16:33N 34°50' E 139°48'1211.2
2016-Feb-07 15:29N 34°39' E 139°55'18 0.6
2016-Feb-06 06:30N 34°55' E 139°45'1210.9
2016-Feb-06 05:23N 35°07' E 139°45'911.2
2016-Feb-06 04:33N 35°17' E 139°45'8 8.5
2016-Feb-06 03:33N 35°23' E 139°39'0 0.0
2016-Feb-06 02:31N 35°23' E 139°39'0 0.0
2016-Feb-06 01:31N 35°23' E 139°39'0 0.0
2016-Feb-06 00:31N 35°23' E 139°39'0 0.0
2016-Feb-05 23:31N 35°23' E 139°39'0 0.0
2016-Feb-05 22:31N 35°23' E 139°39'0 0.0
2016-Feb-05 21:31N 35°23' E 139°39'0 0.0
2016-Feb-05 20:31N 35°23' E 139°39'0 0.0
2016-Feb-05 19:31N 35°23' E 139°39'0 0.0
2016-Feb-05 18:31N 35°23' E 139°39'0 0.0
2016-Feb-05 17:31N 35°23' E 139°39'0 0.0
2016-Feb-05 16:31N 35°23' E 139°39'0 0.0
2016-Feb-05 15:31N 35°23' E 139°39'0 0.0
2016-Feb-05 14:31N 35°23' E 139°39'0 0.0
2016-Feb-05 13:31N 35°23' E 139°39'0 0.0
2016-Feb-05 12:31N 35°23' E 139°39'0 0.0
2016-Feb-05 11:31N 35°23' E 139°39'0 0.0
2016-Feb-05 10:31N 35°23' E 139°39'0 0.0
2016-Feb-05 09:31N 35°23' E 139°39'0 0.0
2016-Feb-05 08:31N 35°23' E 139°39'0 0.0
2016-Feb-05 07:31N 35°23' E 139°39'0 0.0
2016-Feb-05 06:31N 35°23' E 139°39'0 0.0
2016-Feb-05 05:31N 35°23' E 139°39'0 0.0
2016-Feb-05 04:31N 35°23' E 139°39'0 0.0
2016-Feb-05 03:31N 35°23' E 139°39'0 0.0
2016-Feb-05 02:31N 35°23' E 139°39'0 0.0
2016-Feb-05 01:31N 35°23' E 139°39'0 0.0
2016-Feb-05 00:31N 35°23' E 139°39'0 0.0
2016-Feb-04 23:31N 35°23' E 139°39'3 2.8
2016-Feb-04 22:33N 35°21' E 139°41'0 0.1
2016-Feb-04 21:33N 35°21' E 139°41'0 0.0
2016-Feb-04 20:33N 35°21' E 139°41'0 0.0
2016-Feb-04 19:33N 35°21' E 139°41'0 0.0
2016-Feb-04 18:33N 35°21' E 139°41'0 0.0
2016-Feb-04 17:33N 35°21' E 139°41'0 0.0
2016-Feb-04 16:33N 35°21' E 139°41'0 0.1
2016-Feb-04 15:33N 35°21' E 139°41'0 0.0
2016-Feb-04 14:33N 35°21' E 139°41'0 0.1
2016-Feb-04 13:33N 35°21' E 139°41'0 0.0
2016-Feb-04 12:33N 35°21' E 139°41'0 0.0
2016-Feb-04 11:33N 35°21' E 139°41'0 0.1
2016-Feb-04 10:33N 35°21' E 139°41'0 0.0
2016-Feb-04 09:33N 35°21' E 139°41'0 0.1
2016-Feb-04 08:33N 35°21' E 139°41'0 0.1
2016-Feb-04 07:33N 35°21' E 139°41'0 0.1
2016-Feb-04 06:33N 35°21' E 139°41'0 0.0
2016-Feb-04 05:33N 35°21' E 139°41'  
Track history (hours):
 
Tides and Currents Weather Stations Pressure Air Temp Water Temp Dewpoint Dewpoint Depression Visibility Wind Speed Wind Dir Waves Ship Positions

Zenken Maru

Last reported at 2016-Feb-14 05:32 UTC. Time now 2016-Feb-14 05:56 UTC.
Position N 35°21' E 139°41'.

Length 98 m; draft 7.2 m.

Type: Cargo ship. MMSI: 431100955.

Date/timePositionNaut miles runAvg speedWind from/ knotsBaromVisibWave heightAir tempDewpointWater temp
2016-Feb-14 05:32N 35°21' E 139°41'0 0.0
2016-Feb-14 04:33N 35°21' E 139°41'0 0.0
2016-Feb-14 03:33N 35°21' E 139°41'0 0.0
2016-Feb-14 02:32N 35°21' E 139°41'0 0.0
2016-Feb-14 01:33N 35°21' E 139°41'0 0.0
2016-Feb-14 00:34N 35°21' E 139°41'0 0.0
2016-Feb-13 23:33N 35°21' E 139°41'0 0.1
2016-Feb-13 22:33N 35°20' E 139°41'1010.1
2016-Feb-13 21:33N 35°11' E 139°47'1312.1
2016-Feb-13 20:27N 34°58' E 139°43'1212.4
2016-Feb-13 19:31N 34°48' E 139°49'1211.9
2016-Feb-13 18:30N 34°37' E 139°56'34 1.0
2016-Feb-12 08:30N 35°10' E 139°46'910.0
2016-Feb-12 07:34N 35°19' E 139°43'5 5.0
2016-Feb-12 06:33N 35°23' E 139°39'0 0.0
2016-Feb-12 05:33N 35°23' E 139°39'0 0.0
2016-Feb-12 04:30N 35°23' E 139°39'0 0.0
2016-Feb-12 03:33N 35°23' E 139°39'0 0.0
2016-Feb-12 02:33N 35°23' E 139°39'0 0.0
2016-Feb-12 01:33N 35°23' E 139°39'0 0.0
2016-Feb-12 00:33N 35°23' E 139°39'0 0.0
2016-Feb-11 23:33N 35°23' E 139°39'0 0.0
2016-Feb-11 22:33N 35°23' E 139°39'0 0.0
2016-Feb-11 21:33N 35°23' E 139°39'0 0.0
2016-Feb-11 20:33N 35°23' E 139°39'0 0.0
2016-Feb-11 19:33N 35°23' E 139°39'0 0.0
2016-Feb-11 18:33N 35°23' E 139°39'0 0.0
2016-Feb-11 17:33N 35°23' E 139°39'0 0.0
2016-Feb-11 16:33N 35°23' E 139°39'0 0.0
2016-Feb-11 15:33N 35°23' E 139°39'0 0.0
2016-Feb-11 14:33N 35°23' E 139°39'0 0.0
2016-Feb-11 13:33N 35°23' E 139°39'0 0.0
2016-Feb-11 12:33N 35°23' E 139°39'0 0.0
2016-Feb-11 11:33N 35°23' E 139°39'0 0.0
2016-Feb-11 10:33N 35°23' E 139°39'0 0.0
2016-Feb-11 09:33N 35°23' E 139°39'0 0.0
2016-Feb-11 08:33N 35°23' E 139°39'0 0.0
2016-Feb-11 07:33N 35°23' E 139°39'0 0.0
2016-Feb-11 06:33N 35°23' E 139°39'0 0.0
2016-Feb-11 05:33N 35°23' E 139°39'0 0.0
2016-Feb-11 04:33N 35°23' E 139°39'0 0.0
2016-Feb-11 03:33N 35°23' E 139°39'0 0.0
2016-Feb-11 02:33N 35°23' E 139°39'0 0.0
2016-Feb-11 01:33N 35°23' E 139°39'0 0.0
2016-Feb-11 00:33N 35°23' E 139°39'0 0.0
2016-Feb-10 23:30N 35°23' E 139°39'0 0.0
2016-Feb-10 22:33N 35°23' E 139°39'0 0.0
2016-Feb-10 21:33N 35°23' E 139°39'0 0.0
2016-Feb-10 20:33N 35°23' E 139°39'0 0.0
2016-Feb-10 19:33N 35°23' E 139°39'0 0.0
2016-Feb-10 18:33N 35°23' E 139°39'0 0.0
2016-Feb-10 17:33N 35°23' E 139°39'0 0.0
2016-Feb-10 16:30N 35°23' E 139°39'0 0.0
2016-Feb-10 15:33N 35°23' E 139°39'0 0.0
2016-Feb-10 14:33N 35°23' E 139°39'0 0.0
2016-Feb-10 13:33N 35°23' E 139°39'0 0.0
2016-Feb-10 12:33N 35°23' E 139°39'0 0.0
2016-Feb-10 11:30N 35°23' E 139°39'0 0.0
2016-Feb-10 10:33N 35°23' E 139°39'0 0.0
2016-Feb-10 09:33N 35°23' E 139°39'0 0.0
2016-Feb-10 08:33N 35°23' E 139°39'0 0.0
2016-Feb-10 07:33N 35°23' E 139°39'0 0.0
2016-Feb-10 06:33N 35°23' E 139°39'0 0.0
2016-Feb-10 05:33N 35°23' E 139°39'0 0.0
2016-Feb-10 04:33N 35°23' E 139°39'0 0.0
2016-Feb-10 03:33N 35°23' E 139°39'0 0.0
2016-Feb-10 02:33N 35°23' E 139°39'0 0.0
2016-Feb-10 01:33N 35°23' E 139°39'0 0.0
2016-Feb-10 00:33N 35°23' E 139°39'0 0.0
2016-Feb-09 23:33N 35°23' E 139°39'0 0.3
2016-Feb-09 22:34N 35°23' E 139°39'3 2.9
2016-Feb-09 21:33N 35°21' E 139°41'0 0.0
2016-Feb-09 20:31N 35°21' E 139°41'0 0.1
2016-Feb-09 19:31N 35°21' E 139°41'0 0.1
2016-Feb-09 18:31N 35°21' E 139°41'0 0.0
2016-Feb-09 17:31N 35°21' E 139°41'0 0.1
2016-Feb-09 16:31N 35°21' E 139°41'0 0.0
2016-Feb-09 15:31N 35°21' E 139°41'0 0.0
2016-Feb-09 14:31N 35°21' E 139°41'0 0.0
2016-Feb-09 13:31N 35°21' E 139°41'0 0.0
2016-Feb-09 12:31N 35°21' E 139°41'0 0.0
2016-Feb-09 11:31N 35°21' E 139°41'0 0.0
2016-Feb-09 10:31N 35°21' E 139°41'0 0.1
2016-Feb-09 09:34N 35°21' E 139°41'0 0.0
2016-Feb-09 08:34N 35°21' E 139°41'0 0.1
2016-Feb-09 07:34N 35°21' E 139°41'0 0.0
2016-Feb-09 06:33N 35°21' E 139°41'0 0.0
2016-Feb-09 05:33N 35°21' E 139°41'0 0.0
2016-Feb-09 04:33N 35°21' E 139°41'0 0.0
2016-Feb-09 03:32N 35°21' E 139°41'0 0.0
2016-Feb-09 02:32N 35°21' E 139°41'0 0.0
2016-Feb-09 01:32N 35°21' E 139°41'0 0.1
2016-Feb-09 00:32N 35°21' E 139°41'0 0.1
2016-Feb-08 23:32N 35°21' E 139°41'0 0.0
2016-Feb-08 22:32N 35°21' E 139°41'0 0.0
2016-Feb-08 21:32N 35°21' E 139°41'0 0.0
2016-Feb-08 20:32N 35°21' E 139°41'0 0.0
2016-Feb-08 19:32N 35°21' E 139°41'0 0.0
2016-Feb-08 18:32N 35°21' E 139°41'0 0.1
2016-Feb-08 17:32N 35°21' E 139°41'0 0.0
2016-Feb-08 16:32N 35°21' E 139°41'0 0.1
2016-Feb-08 15:32N 35°21' E 139°41'0 0.1
2016-Feb-08 14:32N 35°21' E 139°41'0 0.0
2016-Feb-08 13:32N 35°21' E 139°41'0 0.0
2016-Feb-08 12:32N 35°21' E 139°41'0 0.0
2016-Feb-08 11:32N 35°21' E 139°41'0 0.0
2016-Feb-08 10:32N 35°21' E 139°41'0 0.0
2016-Feb-08 09:32N 35°21' E 139°41'0 0.0
2016-Feb-08 08:32N 35°21' E 139°41'0 0.0
2016-Feb-08 07:32N 35°21' E 139°41'0 0.0
2016-Feb-08 06:32N 35°21' E 139°41'0 0.1
2016-Feb-08 05:32N 35°21' E 139°41'0 0.0
2016-Feb-08 04:32N 35°21' E 139°41'0 0.0
2016-Feb-08 03:32N 35°21' E 139°41'0 0.0
2016-Feb-08 02:32N 35°21' E 139°41'0 0.0
2016-Feb-08 01:32N 35°21' E 139°41'0 0.0
2016-Feb-08 00:32N 35°21' E 139°41'0 0.0
2016-Feb-07 23:32N 35°21' E 139°41'0 0.0
2016-Feb-07 22:32N 35°21' E 139°41'0 0.0
2016-Feb-07 21:32N 35°21' E 139°41'0 0.0
2016-Feb-07 20:32N 35°21' E 139°41'0 0.1
2016-Feb-07 19:34N 35°21' E 139°41'1010.3
2016-Feb-07 18:33N 35°12' E 139°47'1211.6
2016-Feb-07 17:33N 35°00' E 139°43'1111.3
2016-Feb-07 16:33N 34°50' E 139°48'1211.2
2016-Feb-07 15:29N 34°39' E 139°55'18 0.6
2016-Feb-06 06:30N 34°55' E 139°45'1210.9
2016-Feb-06 05:23N 35°07' E 139°45'911.2
2016-Feb-06 04:33N 35°17' E 139°45'8 8.5
2016-Feb-06 03:33N 35°23' E 139°39'0 0.0
2016-Feb-06 02:31N 35°23' E 139°39'0 0.0
2016-Feb-06 01:31N 35°23' E 139°39'0 0.0
2016-Feb-06 00:31N 35°23' E 139°39'0 0.0
2016-Feb-05 23:31N 35°23' E 139°39'0 0.0
2016-Feb-05 22:31N 35°23' E 139°39'0 0.0
2016-Feb-05 21:31N 35°23' E 139°39'0 0.0
2016-Feb-05 20:31N 35°23' E 139°39'0 0.0
2016-Feb-05 19:31N 35°23' E 139°39'0 0.0
2016-Feb-05 18:31N 35°23' E 139°39'0 0.0
2016-Feb-05 17:31N 35°23' E 139°39'0 0.0
2016-Feb-05 16:31N 35°23' E 139°39'0 0.0
2016-Feb-05 15:31N 35°23' E 139°39'0 0.0
2016-Feb-05 14:31N 35°23' E 139°39'0 0.0
2016-Feb-05 13:31N 35°23' E 139°39'0 0.0
2016-Feb-05 12:31N 35°23' E 139°39'0 0.0
2016-Feb-05 11:31N 35°23' E 139°39'0 0.0
2016-Feb-05 10:31N 35°23' E 139°39'0 0.0
2016-Feb-05 09:31N 35°23' E 139°39'0 0.0
2016-Feb-05 08:31N 35°23' E 139°39'0 0.0
2016-Feb-05 07:31N 35°23' E 139°39'0 0.0
2016-Feb-05 06:31N 35°23' E 139°39'0 0.0
2016-Feb-05 05:31N 35°23' E 139°39'0 0.0
2016-Feb-05 04:31N 35°23' E 139°39'0 0.0
2016-Feb-05 03:31N 35°23' E 139°39'0 0.0
2016-Feb-05 02:31N 35°23' E 139°39'0 0.0
2016-Feb-05 01:31N 35°23' E 139°39'0 0.0
2016-Feb-05 00:31N 35°23' E 139°39'0 0.0
2016-Feb-04 23:31N 35°23' E 139°39'3 2.8
2016-Feb-04 22:33N 35°21' E 139°41'0 0.1
2016-Feb-04 21:33N 35°21' E 139°41'0 0.0
2016-Feb-04 20:33N 35°21' E 139°41'0 0.0
2016-Feb-04 19:33N 35°21' E 139°41'0 0.0
2016-Feb-04 18:33N 35°21' E 139°41'0 0.0
2016-Feb-04 17:33N 35°21' E 139°41'0 0.0
2016-Feb-04 16:33N 35°21' E 139°41'0 0.1
2016-Feb-04 15:33N 35°21' E 139°41'0 0.0
2016-Feb-04 14:33N 35°21' E 139°41'0 0.1
2016-Feb-04 13:33N 35°21' E 139°41'0 0.0
2016-Feb-04 12:33N 35°21' E 139°41'0 0.0
2016-Feb-04 11:33N 35°21' E 139°41'0 0.1
2016-Feb-04 10:33N 35°21' E 139°41'0 0.0
2016-Feb-04 09:33N 35°21' E 139°41'0 0.1
2016-Feb-04 08:33N 35°21' E 139°41'0 0.1
2016-Feb-04 07:33N 35°21' E 139°41'0 0.1
2016-Feb-04 06:33N 35°21' E 139°41'0 0.0
2016-Feb-04 05:33N 35°21' E 139°41'  

Dump ship's entire track history